Portada
METAR-TAF:

METAR-TAF

Aeroports :

Paganella, Itàlia

latitud: 46-09N, longitud: 011-02E, altitud: 2125 m

Observació

L'informe es va fer fa 59 minuts, a les 21:55 UTC
Vent 4 kt del Sud
Temperatura 14°C
Humitat 94%
Pressió 1030 hPa
Visibilitat 10 km o més
sense núvols per sota de 1500 mi sense presència de cumulonimbus.

METAR: LIVP 182155Z 19004KT CAVOK 14/13 Q1030

Hora: 00:54 (22:54 UTC)


TAF: manca

Observacions i pronòstics meteorològics de més de 4000 aeroports (METAR i TAF).

Les estacions disponibles són els punts grocs i vermells al mapa.

Posi el ratolí al punt desitjat per veure el nom de l'estació.

Feu clic per veure les observacions i els pronòstics meteorològics.

Per canviar el mapa: feu clic els botons verds amb una creu de color negre per apropar; al botó verd amb un guió per allunyar la imatge; o en les fletxes verdes per a mapes adjacents.


METAR-TAF: